createdAt,value
2018-09-12T00:02:08.571Z,5.50
2018-09-12T00:04:37.674Z,4.90
2018-09-12T00:07:06.724Z,5.80
2018-09-12T00:09:35.869Z,5.27
2018-09-12T00:12:05.069Z,5.10
2018-09-12T00:14:34.856Z,5.10
2018-09-12T00:17:03.908Z,4.90
2018-09-12T00:19:33.001Z,6.27
2018-09-12T00:22:02.091Z,5.10
2018-09-12T00:24:31.165Z,6.33
2018-09-12T00:27:00.288Z,5.93
2018-09-12T00:29:29.571Z,5.40
2018-09-12T00:31:58.634Z,5.53
2018-09-12T00:34:27.703Z,6.83
2018-09-12T00:36:57.320Z,5.20
2018-09-12T00:39:26.420Z,5.57
2018-09-12T00:41:55.549Z,5.90
2018-09-12T00:44:24.661Z,5.77
2018-09-12T00:46:53.815Z,5.60
2018-09-12T00:49:22.991Z,5.93
2018-09-12T00:51:52.820Z,5.57
2018-09-12T00:54:21.913Z,5.87
2018-09-12T00:56:50.969Z,5.30
2018-09-12T00:59:20.104Z,5.37
2018-09-12T01:01:49.769Z,5.60
2018-09-12T01:04:19.458Z,5.20
2018-09-12T01:06:48.516Z,5.53
2018-09-12T01:09:18.273Z,5.43
2018-09-12T01:11:47.381Z,5.00
2018-09-12T01:14:16.569Z,5.13
2018-09-12T01:16:46.152Z,6.00
2018-09-12T01:19:15.230Z,5.00
2018-09-12T01:21:44.315Z,5.50
2018-09-12T01:24:13.393Z,4.83
2018-09-12T01:26:42.556Z,5.40
2018-09-12T01:29:11.718Z,5.30
2018-09-12T01:31:40.759Z,5.50
2018-09-12T01:34:09.910Z,4.60
2018-09-12T01:36:39.533Z,4.97
2018-09-12T01:39:09.947Z,5.33
2018-09-12T01:41:39.028Z,5.60
2018-09-12T01:44:08.233Z,6.03
2018-09-12T01:46:37.903Z,6.30
2018-09-12T01:49:06.984Z,5.93
2018-09-12T01:51:43.584Z,5.93
2018-09-12T01:54:12.785Z,5.20
2018-09-12T01:56:41.985Z,4.93
2018-09-12T01:59:11.517Z,5.77
2018-09-12T02:01:40.652Z,5.30
2018-09-12T02:04:09.756Z,5.30
2018-09-12T02:06:38.944Z,6.07
2018-09-12T02:09:12.216Z,5.80
2018-09-12T02:11:41.361Z,5.43
2018-09-12T02:14:10.573Z,5.77
2018-09-12T02:16:39.720Z,5.23
2018-09-12T02:19:08.880Z,4.93
2018-09-12T02:21:37.932Z,6.03
2018-09-12T02:24:07.129Z,5.27
2018-09-12T02:26:36.313Z,6.33
2018-09-12T02:29:05.485Z,6.07
2018-09-12T02:31:34.613Z,5.67
2018-09-12T02:34:03.639Z,5.90
2018-09-12T02:36:32.769Z,6.00
2018-09-12T02:39:01.856Z,5.57
2018-09-12T02:41:30.950Z,6.03
2018-09-12T02:44:00.098Z,5.43
2018-09-12T02:46:29.335Z,5.50
2018-09-12T02:48:58.390Z,5.97
2018-09-12T02:51:27.516Z,5.00
2018-09-12T02:53:56.648Z,7.47
2018-09-12T02:56:25.767Z,5.87
2018-09-12T02:58:54.836Z,6.13
2018-09-12T03:01:23.995Z,6.70
2018-09-12T03:03:53.188Z,5.83
2018-09-12T03:06:22.270Z,5.90
2018-09-12T03:08:51.382Z,6.23
2018-09-12T03:11:20.558Z,5.90
2018-09-12T03:13:50.088Z,5.53
2018-09-12T03:16:19.114Z,6.00
2018-09-12T03:18:48.626Z,6.10
2018-09-12T03:21:17.757Z,5.90
2018-09-12T03:23:46.976Z,5.47
2018-09-12T03:26:16.230Z,6.07
2018-09-12T03:28:45.865Z,6.80
2018-09-12T03:31:15.031Z,6.20
2018-09-12T03:33:44.166Z,5.80
2018-09-12T03:36:13.397Z,5.57
2018-09-12T03:38:42.485Z,5.57
2018-09-12T03:41:11.509Z,6.13
2018-09-12T03:43:40.593Z,6.03
2018-09-12T03:46:09.662Z,4.70
2018-09-12T03:48:38.889Z,5.40
2018-09-12T03:51:07.975Z,6.13
2018-09-12T03:53:37.401Z,5.90
2018-09-12T03:56:06.593Z,6.30
2018-09-12T03:58:35.712Z,6.60
2018-09-12T04:01:04.796Z,7.00
2018-09-12T04:03:34.470Z,6.53
2018-09-12T04:06:03.544Z,5.60
2018-09-12T04:08:32.667Z,6.20
2018-09-12T04:11:01.866Z,5.33
2018-09-12T04:13:31.071Z,6.70
2018-09-12T04:16:00.234Z,6.20
2018-09-12T04:18:29.299Z,6.13
2018-09-12T04:20:58.460Z,6.07
2018-09-12T04:23:28.233Z,7.33
2018-09-12T04:25:57.306Z,6.20
2018-09-12T04:28:26.394Z,6.77
2018-09-12T04:30:55.557Z,7.13
2018-09-12T04:33:24.783Z,6.50
2018-09-12T04:35:53.858Z,6.60
2018-09-12T04:38:23.048Z,5.83
2018-09-12T04:40:52.762Z,6.07
2018-09-12T04:43:21.886Z,6.10
2018-09-12T04:45:50.972Z,6.93
2018-09-12T04:48:20.242Z,7.10
2018-09-12T04:50:49.389Z,5.73
2018-09-12T04:53:18.591Z,6.47
2018-09-12T04:55:48.083Z,5.80
2018-09-12T04:58:17.152Z,6.70
2018-09-12T05:00:46.901Z,5.50
2018-09-12T05:03:16.112Z,6.30
2018-09-12T05:05:45.526Z,6.07
2018-09-12T05:08:15.072Z,6.70
2018-09-12T05:10:44.197Z,5.63
2018-09-12T05:13:13.310Z,6.67
2018-09-12T05:15:42.427Z,6.00
2018-09-12T05:18:11.500Z,6.70
2018-09-12T05:20:41.163Z,6.77
2018-09-12T05:23:10.309Z,6.10
2018-09-12T05:25:39.502Z,5.30
2018-09-12T05:28:08.687Z,6.73
2018-09-12T05:30:37.962Z,5.63
2018-09-12T05:33:07.076Z,6.90
2018-09-12T05:35:36.239Z,6.53
2018-09-12T05:38:05.464Z,6.53
2018-09-12T05:40:34.675Z,6.77
2018-09-12T05:43:03.749Z,6.73
2018-09-12T05:45:33.264Z,6.40
2018-09-12T05:48:02.461Z,6.63
2018-09-12T05:50:32.745Z,5.67
2018-09-12T05:53:01.917Z,5.50
2018-09-12T05:55:32.117Z,5.30
2018-09-12T05:58:01.273Z,5.50
2018-09-12T06:00:30.517Z,5.07
2018-09-12T06:03:00.828Z,4.20
2018-09-12T06:05:29.944Z,4.87
2018-09-12T06:07:59.138Z,4.47
2018-09-12T06:10:28.912Z,4.63
2018-09-12T06:12:57.968Z,5.00
2018-09-12T06:15:27.104Z,5.30
2018-09-12T06:17:56.309Z,4.20
2018-09-12T06:20:25.433Z,4.47
2018-09-12T06:22:54.525Z,5.20
2018-09-12T06:25:23.686Z,4.63
2018-09-12T06:27:52.861Z,5.20
2018-09-12T06:30:22.126Z,4.43
2018-09-12T06:32:52.294Z,5.27
2018-09-12T06:35:21.444Z,5.30
2018-09-12T06:37:50.677Z,4.83
2018-09-12T06:40:19.803Z,5.17
2018-09-12T06:42:48.888Z,6.20
2018-09-12T06:45:18.528Z,4.60
2018-09-12T06:47:47.613Z,6.10
2018-09-12T06:50:16.871Z,5.40
2018-09-12T06:52:45.928Z,5.23
2018-09-12T06:55:15.045Z,5.53
2018-09-12T06:57:44.181Z,5.00
2018-09-12T07:00:13.351Z,4.50
2018-09-12T07:02:43.244Z,5.83
2018-09-12T07:05:12.413Z,4.90
2018-09-12T07:07:41.635Z,5.63
2018-09-12T07:10:10.657Z,5.30
2018-09-12T07:12:39.780Z,5.77
2018-09-12T07:15:09.018Z,6.37
2018-09-12T07:17:38.084Z,5.73
2018-09-12T07:20:07.312Z,6.27
2018-09-12T07:22:36.433Z,6.43
2018-09-12T07:25:05.577Z,6.63
2018-09-12T07:27:35.455Z,6.40
2018-09-12T07:30:04.679Z,6.20
2018-09-12T07:32:33.725Z,7.53
2018-09-12T07:35:02.867Z,6.70
2018-09-12T07:37:32.106Z,6.57
2018-09-12T07:40:01.271Z,6.97
2018-09-12T07:42:31.465Z,6.97
2018-09-12T07:45:00.720Z,6.80
2018-09-12T07:47:29.892Z,6.63
2018-09-12T07:49:59.548Z,6.37
2018-09-12T07:52:28.630Z,6.80
2018-09-12T07:54:57.921Z,6.80
2018-09-12T07:57:26.960Z,7.00
2018-09-12T07:59:56.050Z,7.30
2018-09-12T08:02:25.192Z,6.83
2018-09-12T08:04:54.289Z,6.33
2018-09-12T08:07:23.409Z,7.00
2018-09-12T08:09:52.595Z,6.60
2018-09-12T08:12:21.853Z,6.73
2018-09-12T08:14:51.978Z,6.50
2018-09-12T08:17:21.842Z,6.83
2018-09-12T08:19:50.892Z,6.00
2018-09-12T08:22:20.044Z,6.07
2018-09-12T08:24:49.143Z,5.90
2018-09-12T08:27:18.296Z,5.43
2018-09-12T08:29:47.457Z,6.53
2018-09-12T08:32:16.541Z,7.10
2018-09-12T08:34:45.696Z,6.40
2018-09-12T08:37:14.916Z,5.97
2018-09-12T08:39:44.079Z,5.80
2018-09-12T08:42:13.205Z,7.00
2018-09-12T08:44:42.229Z,6.57
2018-09-12T08:47:11.326Z,5.63
2018-09-12T08:49:40.349Z,5.20
2018-09-12T08:52:10.104Z,5.40
2018-09-12T08:54:39.153Z,5.60
2018-09-12T08:57:09.090Z,5.30
2018-09-12T08:59:38.271Z,5.50
2018-09-12T09:02:07.422Z,5.57
2018-09-12T09:04:36.557Z,5.10
2018-09-12T09:07:05.720Z,5.30
2018-09-12T09:09:34.853Z,3.93
2018-09-12T09:12:03.931Z,3.93
2018-09-12T09:14:32.992Z,4.17
2018-09-12T09:17:02.140Z,4.23
2018-09-12T09:19:31.805Z,4.00
2018-09-12T09:22:01.352Z,4.37
2018-09-12T09:24:30.446Z,4.63
2018-09-12T09:26:59.657Z,4.90
2018-09-12T09:29:28.894Z,4.53
2018-09-12T09:31:57.910Z,4.07
2018-09-12T09:34:27.019Z,3.70
2018-09-12T09:36:56.956Z,3.90
2018-09-12T09:39:26.035Z,4.37
2018-09-12T09:41:55.691Z,4.30
2018-09-12T09:44:25.604Z,4.00
2018-09-12T09:46:54.636Z,4.00
2018-09-12T09:49:23.756Z,4.30
2018-09-12T09:51:52.819Z,4.00
2018-09-12T09:54:21.901Z,4.00
2018-09-12T09:56:50.976Z,3.63
2018-09-12T09:59:20.094Z,3.80
2018-09-12T10:01:54.378Z,4.10
2018-09-12T10:04:27.631Z,3.87
2018-09-12T10:06:59.303Z,4.83
2018-09-12T10:09:32.675Z,3.17
2018-09-12T10:12:02.841Z,3.37
2018-09-12T10:14:32.032Z,3.60
2018-09-12T10:17:01.681Z,3.53
2018-09-12T10:19:30.831Z,3.73
2018-09-12T10:21:59.982Z,3.30
2018-09-12T10:24:29.040Z,3.07
2018-09-12T10:26:58.095Z,3.27
2018-09-12T10:29:27.213Z,3.33
2018-09-12T10:31:56.259Z,3.10
2018-09-12T10:34:25.520Z,3.00
2018-09-12T10:36:54.730Z,3.00
2018-09-12T10:39:23.823Z,2.80
2018-09-12T10:41:52.956Z,3.30
2018-09-12T10:44:22.049Z,3.30
2018-09-12T10:46:51.097Z,2.60
2018-09-12T10:49:20.179Z,2.77
2018-09-12T10:51:49.246Z,2.80
2018-09-12T10:54:18.291Z,2.30
2018-09-12T10:56:47.346Z,2.30
2018-09-12T10:59:16.425Z,2.40
2018-09-12T11:01:45.477Z,2.53
2018-09-12T11:04:14.593Z,2.57
2018-09-12T11:06:43.612Z,2.60
2018-09-12T11:09:13.887Z,2.67
2018-09-12T11:11:43.668Z,2.20
2018-09-12T11:14:12.777Z,2.50
2018-09-12T11:16:42.527Z,2.47
2018-09-12T11:19:11.634Z,2.80
2018-09-12T11:21:40.724Z,2.70
2018-09-12T11:24:10.416Z,2.40
2018-09-12T11:26:39.499Z,2.50
2018-09-12T11:29:09.297Z,2.60
2018-09-12T11:31:38.378Z,2.70
2018-09-12T11:34:07.484Z,2.60
2018-09-12T11:36:36.637Z,2.43
2018-09-12T11:39:08.775Z,2.50
2018-09-12T11:41:37.904Z,2.67
2018-09-12T11:44:07.286Z,2.70
2018-09-12T11:46:36.417Z,2.67
2018-09-12T11:49:05.612Z,2.60
2018-09-12T11:51:34.691Z,2.50
2018-09-12T11:54:03.757Z,2.40
2018-09-12T11:56:32.936Z,2.30
2018-09-12T11:59:02.171Z,2.90
2018-09-12T12:01:31.296Z,2.77
2018-09-12T12:04:00.353Z,2.83
2018-09-12T12:06:29.490Z,3.00
2018-09-12T12:08:58.538Z,3.07
2018-09-12T12:11:27.677Z,3.10
2018-09-12T12:13:56.829Z,2.77
2018-09-12T12:16:26.188Z,3.10
2018-09-12T12:18:55.235Z,2.63
2018-09-12T12:21:24.340Z,3.27
2018-09-12T12:23:53.448Z,2.97
2018-09-12T12:26:23.262Z,3.37
2018-09-12T12:28:52.554Z,3.10
2018-09-12T12:31:22.337Z,3.37
2018-09-12T12:33:51.428Z,3.30
2018-09-12T12:36:20.604Z,3.37
2018-09-12T12:38:49.672Z,2.90
2018-09-12T12:41:18.788Z,3.23
2018-09-12T12:43:47.860Z,2.80
2018-09-12T12:46:16.975Z,3.10
2018-09-12T12:48:46.034Z,2.97
2018-09-12T12:51:15.245Z,3.10
2018-09-12T12:53:44.370Z,2.70
2018-09-12T12:56:13.580Z,3.50
2018-09-12T12:58:42.676Z,2.90
2018-09-12T13:01:11.860Z,2.60
2018-09-12T13:03:41.009Z,2.47
2018-09-12T13:06:10.956Z,3.33
2018-09-12T13:08:40.037Z,2.83
2018-09-12T13:11:09.114Z,3.03
2018-09-12T13:13:38.198Z,3.20
2018-09-12T13:16:07.513Z,3.23
2018-09-12T13:18:36.685Z,2.80
2018-09-12T13:21:05.948Z,3.00
2018-09-12T13:23:35.086Z,2.80
2018-09-12T13:26:04.207Z,3.10
2018-09-12T13:28:33.341Z,3.30
2018-09-12T13:31:02.403Z,2.97
2018-09-12T13:33:31.623Z,3.17
2018-09-12T13:36:00.718Z,3.53
2018-09-12T13:38:29.804Z,3.60
2018-09-12T13:40:58.887Z,3.17
2018-09-12T13:43:27.908Z,3.07
2018-09-12T13:45:56.968Z,3.00
2018-09-12T13:48:26.053Z,3.10
2018-09-12T13:50:55.273Z,3.10
2018-09-12T13:53:24.464Z,3.40
2018-09-12T13:55:53.831Z,3.10
2018-09-12T13:58:23.289Z,3.27
2018-09-12T14:00:52.569Z,3.10
2018-09-12T14:03:21.719Z,3.63
2018-09-12T14:05:50.839Z,3.30
2018-09-12T14:08:20.573Z,2.97
2018-09-12T14:10:49.638Z,3.30
2018-09-12T14:13:18.809Z,2.80
2018-09-12T14:15:47.991Z,3.20
2018-09-12T14:18:17.124Z,2.80
2018-09-12T14:20:46.236Z,2.90
2018-09-12T14:23:15.361Z,3.00
2018-09-12T14:25:45.235Z,3.30
2018-09-12T14:28:14.921Z,2.73
2018-09-12T14:30:44.056Z,3.10
2018-09-12T14:33:13.220Z,3.60
2018-09-12T14:35:42.938Z,3.50
2018-09-12T14:38:12.117Z,3.40
2018-09-12T14:40:41.211Z,3.00
2018-09-12T14:43:10.379Z,3.70
2018-09-12T14:45:40.077Z,3.00
2018-09-12T14:48:09.721Z,3.20
2018-09-12T14:50:38.824Z,2.80
2018-09-12T14:53:07.884Z,3.10
2018-09-12T14:55:37.184Z,3.10
2018-09-12T14:58:06.411Z,3.60
2018-09-12T15:00:35.672Z,3.30
2018-09-12T15:03:04.899Z,3.67
2018-09-12T15:05:34.709Z,3.40
2018-09-12T15:08:04.441Z,3.50
2018-09-12T15:10:33.675Z,3.10
2018-09-12T15:13:02.706Z,2.90
2018-09-12T15:15:31.813Z,3.10
2018-09-12T15:18:01.368Z,2.87
2018-09-12T15:20:30.516Z,3.10
2018-09-12T15:22:59.591Z,3.00
2018-09-12T15:25:28.694Z,3.20
2018-09-12T15:27:57.751Z,3.50
2018-09-12T15:30:26.870Z,3.70
2018-09-12T15:32:56.018Z,3.40
2018-09-12T15:35:25.265Z,3.20
2018-09-12T15:37:54.357Z,3.13
2018-09-12T15:40:23.458Z,3.40
2018-09-12T15:42:53.148Z,3.60
2018-09-12T15:45:22.270Z,3.80
2018-09-12T15:47:51.439Z,3.03
2018-09-12T15:50:22.571Z,3.40
2018-09-12T15:52:51.836Z,3.73
2018-09-12T15:55:21.261Z,3.60
2018-09-12T15:57:50.426Z,4.03
2018-09-12T16:00:19.546Z,3.90
2018-09-12T16:02:48.695Z,3.63
2018-09-12T16:05:17.789Z,3.90
2018-09-12T16:07:46.832Z,3.00
2018-09-12T16:10:16.605Z,3.63
2018-09-12T16:12:45.691Z,3.30
2018-09-12T16:15:14.888Z,3.70
2018-09-12T16:17:44.520Z,3.70
2018-09-12T16:20:13.614Z,3.00
2018-09-12T16:22:42.676Z,3.67
2018-09-12T16:25:11.752Z,3.53
2018-09-12T16:27:40.905Z,3.90
2018-09-12T16:30:10.210Z,4.23
2018-09-12T16:32:39.518Z,4.23
2018-09-12T16:35:08.594Z,4.37
2018-09-12T16:37:37.841Z,4.90
2018-09-12T16:40:07.597Z,3.50
2018-09-12T16:42:37.403Z,4.07
2018-09-12T16:45:06.557Z,4.20
2018-09-12T16:47:35.717Z,3.90
2018-09-12T16:50:05.376Z,4.00
2018-09-12T16:52:34.488Z,4.60
2018-09-12T16:55:03.596Z,3.40
2018-09-12T16:57:32.668Z,4.10
2018-09-12T17:00:01.742Z,4.33
2018-09-12T17:02:30.887Z,3.73
2018-09-12T17:04:59.937Z,4.00
2018-09-12T17:07:29.116Z,4.40
2018-09-12T17:09:58.340Z,3.60
2018-09-12T17:12:27.936Z,4.20
2018-09-12T17:14:57.008Z,3.73
2018-09-12T17:17:26.139Z,4.40
2018-09-12T17:19:55.248Z,3.97
2018-09-12T17:22:24.373Z,4.30
2018-09-12T17:24:53.465Z,4.00
2018-09-12T17:27:22.572Z,4.90
2018-09-12T17:29:51.627Z,4.20
2018-09-12T17:32:20.812Z,4.80
2018-09-12T17:34:49.903Z,5.50
2018-09-12T17:37:18.977Z,4.37
2018-09-12T17:39:48.033Z,4.40
2018-09-12T17:42:17.189Z,5.37
2018-09-12T17:44:46.860Z,5.13
2018-09-12T17:47:15.913Z,4.50
2018-09-12T17:49:45.060Z,5.10
2018-09-12T17:52:14.119Z,5.17
2018-09-12T17:54:43.340Z,4.90
2018-09-12T17:57:12.484Z,4.53
2018-09-12T17:59:41.737Z,4.43
2018-09-12T18:02:10.884Z,4.70
2018-09-12T18:04:40.641Z,4.20
2018-09-12T18:07:09.740Z,4.30
2018-09-12T18:09:38.828Z,4.47
2018-09-12T18:12:07.885Z,4.00
2018-09-12T18:14:37.037Z,4.30
2018-09-12T18:17:06.235Z,4.47
2018-09-12T18:19:36.036Z,4.40
2018-09-12T18:22:05.204Z,4.43
2018-09-12T18:24:34.309Z,4.37
2018-09-12T18:27:03.529Z,4.00
2018-09-12T18:29:32.749Z,4.20
2018-09-12T18:32:01.912Z,4.10
2018-09-12T18:34:31.600Z,3.60
2018-09-12T18:37:00.632Z,3.80
2018-09-12T18:39:29.860Z,4.20
2018-09-12T18:41:58.997Z,4.07
2018-09-12T18:44:28.052Z,3.80
2018-09-12T18:46:57.218Z,4.40
2018-09-12T18:49:26.418Z,3.80
2018-09-12T18:51:55.956Z,4.40
2018-09-12T18:54:25.034Z,5.30
2018-09-12T18:56:54.117Z,4.40
2018-09-12T18:59:23.200Z,4.13
2018-09-12T19:01:52.255Z,4.30
2018-09-12T19:04:21.397Z,4.50
2018-09-12T19:06:50.590Z,5.73
2018-09-12T19:09:19.530Z,5.73
2018-09-12T19:11:48.575Z,6.00
2018-09-12T19:14:17.707Z,5.97
2018-09-12T19:16:46.818Z,6.87
2018-09-12T19:19:15.996Z,5.50
2018-09-12T19:21:45.128Z,6.63
2018-09-12T19:24:14.304Z,5.80
2018-09-12T19:26:43.537Z,6.20
2018-09-12T19:29:12.629Z,5.73
2018-09-12T19:31:41.725Z,5.60
2018-09-12T19:34:10.796Z,6.20
2018-09-12T19:36:40.225Z,5.50
2018-09-12T19:39:10.026Z,6.00
2018-09-12T19:41:39.851Z,5.80
2018-09-12T19:44:08.911Z,5.93
2018-09-12T19:46:37.932Z,6.33
2018-09-12T19:49:07.005Z,5.60
2018-09-12T19:51:36.064Z,5.90
2018-09-12T19:54:05.238Z,5.60
2018-09-12T19:56:34.391Z,5.70
2018-09-12T19:59:03.617Z,5.50
2018-09-12T20:01:32.732Z,6.60
2018-09-12T20:04:01.800Z,5.30
2018-09-12T20:06:31.039Z,5.47
2018-09-12T20:09:00.285Z,5.90
2018-09-12T20:11:29.369Z,6.83
2018-09-12T20:13:59.025Z,7.33
2018-09-12T20:16:28.176Z,7.00
2018-09-12T20:18:57.987Z,7.17
2018-09-12T20:21:27.690Z,5.87
2018-09-12T20:23:56.980Z,5.83
2018-09-12T20:26:25.964Z,6.20
2018-09-12T20:28:55.175Z,7.47
2018-09-12T20:31:24.297Z,7.90
2018-09-12T20:33:53.867Z,5.60
2018-09-12T20:36:22.915Z,6.27
2018-09-12T20:38:52.089Z,6.43
2018-09-12T20:41:21.371Z,6.80
2018-09-12T20:43:50.571Z,6.30
2018-09-12T20:46:19.661Z,6.00
2018-09-12T20:48:48.765Z,6.47
2018-09-12T20:51:17.896Z,6.40
2018-09-12T20:53:46.976Z,6.00
2018-09-12T20:56:16.021Z,6.63
2018-09-12T20:58:45.216Z,6.50
2018-09-12T21:01:14.449Z,6.20
2018-09-12T21:03:43.480Z,6.93
2018-09-12T21:06:12.588Z,6.30
2018-09-12T21:08:41.679Z,6.00
2018-09-12T21:11:10.945Z,6.90
2018-09-12T21:13:39.977Z,5.63
2018-09-12T21:16:09.615Z,5.47
2018-09-12T21:18:38.692Z,5.70
2018-09-12T21:21:08.553Z,5.03
2018-09-12T21:23:37.612Z,6.60
2018-09-12T21:26:06.707Z,5.83
2018-09-12T21:28:35.878Z,5.17
2018-09-12T21:31:05.545Z,5.90
2018-09-12T21:33:34.704Z,5.03
2018-09-12T21:36:03.790Z,5.30
2018-09-12T21:38:32.840Z,5.23
2018-09-12T21:41:02.010Z,5.20
2018-09-12T21:43:31.171Z,5.40
2018-09-12T21:46:00.257Z,5.20
2018-09-12T21:48:29.402Z,6.03
2018-09-12T21:50:58.561Z,5.83
2018-09-12T21:53:27.733Z,5.60
2018-09-12T21:55:57.569Z,6.40
2018-09-12T21:58:26.637Z,6.07
2018-09-12T22:00:55.714Z,7.30
2018-09-12T22:03:24.881Z,7.30
2018-09-12T22:05:53.917Z,6.70
2018-09-12T22:08:23.237Z,7.37
2018-09-12T22:10:52.323Z,7.60
2018-09-12T22:13:21.497Z,9.17
2018-09-12T22:15:51.177Z,6.70
2018-09-12T22:18:20.278Z,6.37
2018-09-12T22:20:49.453Z,7.07
2018-09-12T22:23:18.496Z,7.30
2018-09-12T22:25:47.622Z,8.00
2018-09-12T22:28:16.776Z,8.47
2018-09-12T22:30:45.886Z,9.13
2018-09-12T22:33:14.977Z,8.60
2018-09-12T22:35:44.203Z,8.30
2018-09-12T22:38:13.973Z,8.23
2018-09-12T22:40:43.247Z,8.47
2018-09-12T22:43:12.296Z,8.50
2018-09-12T22:45:41.412Z,7.47
2018-09-12T22:48:10.584Z,8.60
2018-09-12T22:50:39.680Z,8.43
2018-09-12T22:53:08.762Z,7.87
2018-09-12T22:55:38.390Z,8.27
2018-09-12T22:58:07.537Z,8.50
2018-09-12T23:00:36.673Z,7.60
2018-09-12T23:03:05.851Z,7.70
2018-09-12T23:05:35.008Z,7.20
2018-09-12T23:08:04.081Z,8.10
2018-09-12T23:10:33.155Z,8.60
2018-09-12T23:13:02.281Z,7.40
2018-09-12T23:15:31.325Z,7.20
2018-09-12T23:18:00.450Z,7.90
2018-09-12T23:20:29.553Z,6.30
2018-09-12T23:22:58.694Z,7.10
2018-09-12T23:25:27.874Z,7.63
2018-09-12T23:27:56.934Z,8.97
2018-09-12T23:30:26.082Z,10.77
2018-09-12T23:32:55.250Z,9.67
2018-09-12T23:35:24.932Z,9.00
2018-09-12T23:37:54.103Z,10.00
2018-09-12T23:40:23.219Z,8.90
2018-09-12T23:42:52.944Z,9.27
2018-09-12T23:45:22.067Z,9.10
2018-09-12T23:47:51.208Z,9.90
2018-09-12T23:50:20.465Z,8.87
2018-09-12T23:52:49.527Z,9.27
2018-09-12T23:55:18.870Z,8.90
2018-09-12T23:57:49.164Z,9.63
